sensor_id;sensor_type;location;lat;lon;timestamp;pressure;altitude;pressure_sealevel;temperature;humidity
62634;BME280;48704;50.534;6.442;2023-05-09T00:02:00;95749.94;;;12.70;100.00
62634;BME280;48704;50.534;6.442;2023-05-09T00:04:26;95756.09;;;12.75;100.00
62634;BME280;48704;50.534;6.442;2023-05-09T00:06:51;95756.88;;;12.75;100.00
62634;BME280;48704;50.534;6.442;2023-05-09T00:09:16;95753.78;;;12.73;100.00
62634;BME280;48704;50.534;6.442;2023-05-09T00:11:42;95753.59;;;12.77;100.00
62634;BME280;48704;50.534;6.442;2023-05-09T00:14:07;95745.34;;;12.67;100.00
62634;BME280;48704;50.534;6.442;2023-05-09T00:16:33;95750.50;;;12.75;100.00
62634;BME280;48704;50.534;6.442;2023-05-09T00:18:58;95742.19;;;12.80;100.00
62634;BME280;48704;50.534;6.442;2023-05-09T00:21:24;95744.88;;;12.89;100.00
62634;BME280;48704;50.534;6.442;2023-05-09T00:23:50;95735.69;;;12.68;100.00
62634;BME280;48704;50.534;6.442;2023-05-09T00:26:15;95734.56;;;13.01;100.00
62634;BME280;48704;50.534;6.442;2023-05-09T00:28:41;95731.75;;;13.01;100.00
62634;BME280;48704;50.534;6.442;2023-05-09T00:31:06;95726.34;;;12.92;100.00
62634;BME280;48704;50.534;6.442;2023-05-09T00:33:32;95729.28;;;12.83;100.00
62634;BME280;48704;50.534;6.442;2023-05-09T00:35:57;95722.97;;;12.88;100.00
62634;BME280;48704;50.534;6.442;2023-05-09T00:38:23;95725.91;;;12.79;100.00
62634;BME280;48704;50.534;6.442;2023-05-09T00:40:48;95721.72;;;12.68;100.00
62634;BME280;48704;50.534;6.442;2023-05-09T00:43:13;95717.09;;;12.65;100.00
62634;BME280;48704;50.534;6.442;2023-05-09T00:45:39;95713.69;;;12.96;100.00
62634;BME280;48704;50.534;6.442;2023-05-09T00:48:05;95723.75;;;12.88;100.00
62634;BME280;48704;50.534;6.442;2023-05-09T00:50:31;95712.91;;;12.76;100.00
62634;BME280;48704;50.534;6.442;2023-05-09T00:52:57;95717.53;;;12.99;100.00
62634;BME280;48704;50.534;6.442;2023-05-09T00:55:23;95712.22;;;12.81;100.00
62634;BME280;48704;50.534;6.442;2023-05-09T00:57:48;95705.38;;;12.82;100.00
62634;BME280;48704;50.534;6.442;2023-05-09T01:00:14;95692.63;;;12.81;100.00
62634;BME280;48704;50.534;6.442;2023-05-09T01:02:47;95694.75;;;12.86;100.00
62634;BME280;48704;50.534;6.442;2023-05-09T01:05:13;95699.22;;;12.78;100.00
62634;BME280;48704;50.534;6.442;2023-05-09T01:07:54;95697.09;;;12.72;100.00
62634;BME280;48704;50.534;6.442;2023-05-09T01:10:34;95684.53;;;12.83;100.00
62634;BME280;48704;50.534;6.442;2023-05-09T01:13:16;95699.00;;;12.81;100.00
62634;BME280;48704;50.534;6.442;2023-05-09T01:16:07;95688.38;;;12.85;100.00
62634;BME280;48704;50.534;6.442;2023-05-09T01:18:55;95687.09;;;12.66;100.00
62634;BME280;48704;50.534;6.442;2023-05-09T01:21:27;95682.50;;;12.63;100.00
62634;BME280;48704;50.534;6.442;2023-05-09T01:27:07;95682.56;;;12.89;100.00
62634;BME280;48704;50.534;6.442;2023-05-09T01:29:41;95678.38;;;12.79;100.00
62634;BME280;48704;50.534;6.442;2023-05-09T01:32:11;95671.09;;;12.66;100.00
62634;BME280;48704;50.534;6.442;2023-05-09T01:34:42;95677.91;;;12.60;100.00
62634;BME280;48704;50.534;6.442;2023-05-09T01:37:08;95665.50;;;12.66;100.00
62634;BME280;48704;50.534;6.442;2023-05-09T01:39:37;95662.03;;;12.71;100.00
62634;BME280;48704;50.534;6.442;2023-05-09T01:42:06;95658.66;;;12.88;100.00
62634;BME280;48704;50.534;6.442;2023-05-09T01:44:42;95660.75;;;12.93;100.00
62634;BME280;48704;50.534;6.442;2023-05-09T01:47:10;95668.06;;;13.11;100.00
62634;BME280;48704;50.534;6.442;2023-05-09T01:49:37;95663.28;;;12.91;100.00
62634;BME280;48704;50.534;6.442;2023-05-09T01:52:07;95657.00;;;12.76;100.00
62634;BME280;48704;50.534;6.442;2023-05-09T01:54:33;95655.88;;;12.67;100.00
62634;BME280;48704;50.534;6.442;2023-05-09T01:57:00;95655.31;;;12.63;100.00
62634;BME280;48704;50.534;6.442;2023-05-09T01:59:28;95654.78;;;12.59;100.00
62634;BME280;48704;50.534;6.442;2023-05-09T02:01:55;95659.72;;;12.50;100.00
62634;BME280;48704;50.534;6.442;2023-05-09T02:04:20;95645.41;;;12.42;100.00
62634;BME280;48704;50.534;6.442;2023-05-09T02:06:47;95644.28;;;12.34;100.00
62634;BME280;48704;50.534;6.442;2023-05-09T02:09:16;95641.88;;;12.27;100.00
62634;BME280;48704;50.534;6.442;2023-05-09T02:11:42;95648.47;;;12.24;100.00
62634;BME280;48704;50.534;6.442;2023-05-09T02:14:07;95645.59;;;12.18;100.00
62634;BME280;48704;50.534;6.442;2023-05-09T02:16:33;95641.47;;;12.14;100.00
62634;BME280;48704;50.534;6.442;2023-05-09T02:18:59;95641.47;;;12.14;100.00
62634;BME280;48704;50.534;6.442;2023-05-09T02:21:25;95634.06;;;12.11;100.00
62634;BME280;48704;50.534;6.442;2023-05-09T02:23:50;95635.53;;;12.06;100.00
62634;BME280;48704;50.534;6.442;2023-05-09T02:26:16;95628.81;;;11.98;100.00
62634;BME280;48704;50.534;6.442;2023-05-09T02:28:43;95629.56;;;11.98;100.00
62634;BME280;48704;50.534;6.442;2023-05-09T02:31:09;95624.97;;;11.95;100.00
62634;BME280;48704;50.534;6.442;2023-05-09T02:33:38;95628.03;;;11.97;100.00
62634;BME280;48704;50.534;6.442;2023-05-09T02:36:06;95634.78;;;11.91;100.00
62634;BME280;48704;50.534;6.442;2023-05-09T02:38:33;95632.75;;;11.91;100.00
62634;BME280;48704;50.534;6.442;2023-05-09T02:40:58;95627.91;;;11.86;100.00
62634;BME280;48704;50.534;6.442;2023-05-09T02:43:24;95628.44;;;11.90;100.00
62634;BME280;48704;50.534;6.442;2023-05-09T02:45:49;95631.09;;;11.79;100.00
62634;BME280;48704;50.534;6.442;2023-05-09T02:48:14;95632.03;;;11.76;100.00
62634;BME280;48704;50.534;6.442;2023-05-09T02:50:40;95629.63;;;11.69;100.00
62634;BME280;48704;50.534;6.442;2023-05-09T02:53:07;95625.66;;;11.76;100.00
62634;BME280;48704;50.534;6.442;2023-05-09T02:55:33;95631.38;;;11.81;100.00
62634;BME280;48704;50.534;6.442;2023-05-09T02:57:59;95633.88;;;11.79;100.00
62634;BME280;48704;50.534;6.442;2023-05-09T03:00:24;95636.50;;;12.03;100.00
62634;BME280;48704;50.534;6.442;2023-05-09T03:02:50;95622.41;;;12.12;100.00
62634;BME280;48704;50.534;6.442;2023-05-09T03:05:16;95616.91;;;12.18;100.00
62634;BME280;48704;50.534;6.442;2023-05-09T03:07:42;95621.63;;;12.12;100.00
62634;BME280;48704;50.534;6.442;2023-05-09T03:10:07;95620.50;;;12.03;100.00
62634;BME280;48704;50.534;6.442;2023-05-09T03:12:35;95610.66;;;12.08;100.00
62634;BME280;48704;50.534;6.442;2023-05-09T03:15:02;95616.47;;;12.04;100.00
62634;BME280;48704;50.534;6.442;2023-05-09T03:17:28;95617.19;;;12.20;100.00
62634;BME280;48704;50.534;6.442;2023-05-09T03:19:53;95617.66;;;12.38;100.00
62634;BME280;48704;50.534;6.442;2023-05-09T03:22:18;95620.25;;;12.42;100.00
62634;BME280;48704;50.534;6.442;2023-05-09T03:24:43;95615.28;;;12.31;100.00
62634;BME280;48704;50.534;6.442;2023-05-09T03:27:09;95618.56;;;12.30;100.00
62634;BME280;48704;50.534;6.442;2023-05-09T03:29:34;95616.75;;;12.27;100.00
62634;BME280;48704;50.534;6.442;2023-05-09T03:31:59;95613.75;;;12.30;100.00
62634;BME280;48704;50.534;6.442;2023-05-09T03:34:24;95614.22;;;12.29;100.00
62634;BME280;48704;50.534;6.442;2023-05-09T03:36:50;95606.78;;;12.20;100.00
62634;BME280;48704;50.534;6.442;2023-05-09T03:39:15;95606.41;;;12.13;100.00
62634;BME280;48704;50.534;6.442;2023-05-09T03:41:40;95595.81;;;12.17;100.00
62634;BME280;48704;50.534;6.442;2023-05-09T03:44:07;95596.63;;;12.02;100.00
62634;BME280;48704;50.534;6.442;2023-05-09T03:46:32;95594.69;;;12.09;100.00
62634;BME280;48704;50.534;6.442;2023-05-09T03:48:58;95594.88;;;12.05;100.00
62634;BME280;48704;50.534;6.442;2023-05-09T03:51:23;95582.75;;;12.08;100.00
62634;BME280;48704;50.534;6.442;2023-05-09T03:53:49;95582.53;;;12.12;100.00
62634;BME280;48704;50.534;6.442;2023-05-09T03:56:14;95571.84;;;12.10;100.00
62634;BME280;48704;50.534;6.442;2023-05-09T03:58:39;95573.59;;;12.08;100.00
62634;BME280;48704;50.534;6.442;2023-05-09T04:01:05;95565.97;;;12.08;100.00
62634;BME280;48704;50.534;6.442;2023-05-09T04:03:30;95565.97;;;12.08;100.00
62634;BME280;48704;50.534;6.442;2023-05-09T04:05:56;95559.28;;;12.00;100.00
62634;BME280;48704;50.534;6.442;2023-05-09T04:08:21;95567.53;;;12.09;100.00
62634;BME280;48704;50.534;6.442;2023-05-09T04:10:48;95560.75;;;12.16;100.00
62634;BME280;48704;50.534;6.442;2023-05-09T04:13:13;95552.50;;;12.07;100.00
62634;BME280;48704;50.534;6.442;2023-05-09T04:15:39;95557.94;;;11.95;100.00
62634;BME280;48704;50.534;6.442;2023-05-09T04:18:04;95552.91;;;11.99;100.00
62634;BME280;48704;50.534;6.442;2023-05-09T04:20:30;95553.84;;;12.11;100.00
62634;BME280;48704;50.534;6.442;2023-05-09T04:22:55;95564.38;;;12.01;100.00
62634;BME280;48704;50.534;6.442;2023-05-09T04:25:20;95570.03;;;12.07;100.00
62634;BME280;48704;50.534;6.442;2023-05-09T04:27:46;95568.50;;;12.06;100.00
62634;BME280;48704;50.534;6.442;2023-05-09T04:30:11;95563.81;;;11.97;100.00
62634;BME280;48704;50.534;6.442;2023-05-09T04:32:37;95561.28;;;11.99;100.00
62634;BME280;48704;50.534;6.442;2023-05-09T04:35:03;95559.63;;;12.08;100.00
62634;BME280;48704;50.534;6.442;2023-05-09T04:37:29;95568.44;;;12.21;100.00
62634;BME280;48704;50.534;6.442;2023-05-09T04:39:55;95556.41;;;12.35;100.00
62634;BME280;48704;50.534;6.442;2023-05-09T04:42:20;95571.06;;;12.30;100.00
62634;BME280;48704;50.534;6.442;2023-05-09T04:44:46;95555.63;;;12.34;100.00
62634;BME280;48704;50.534;6.442;2023-05-09T04:47:11;95562.13;;;12.26;100.00
62634;BME280;48704;50.534;6.442;2023-05-09T04:49:36;95558.56;;;12.25;100.00
62634;BME280;48704;50.534;6.442;2023-05-09T04:52:02;95555.97;;;12.42;100.00
62634;BME280;48704;50.534;6.442;2023-05-09T04:54:27;95560.03;;;12.41;100.00
62634;BME280;48704;50.534;6.442;2023-05-09T04:56:52;95550.94;;;12.46;100.00
62634;BME280;48704;50.534;6.442;2023-05-09T04:59:18;95556.75;;;12.43;100.00
62634;BME280;48704;50.534;6.442;2023-05-09T05:01:43;95551.22;;;12.48;100.00
62634;BME280;48704;50.534;6.442;2023-05-09T05:04:08;95551.22;;;12.48;100.00
62634;BME280;48704;50.534;6.442;2023-05-09T05:06:34;95549.97;;;12.49;100.00
62634;BME280;48704;50.534;6.442;2023-05-09T05:08:59;95549.59;;;12.62;100.00
62634;BME280;48704;50.534;6.442;2023-05-09T05:11:24;95549.63;;;12.67;100.00
62634;BME280;48704;50.534;6.442;2023-05-09T05:13:50;95542.22;;;12.64;100.00
62634;BME280;48704;50.534;6.442;2023-05-09T05:16:15;95545.53;;;12.63;100.00
62634;BME280;48704;50.534;6.442;2023-05-09T05:18:40;95529.56;;;12.43;100.00
62634;BME280;48704;50.534;6.442;2023-05-09T05:21:06;95529.22;;;12.35;100.00
62634;BME280;48704;50.534;6.442;2023-05-09T05:23:31;95532.41;;;12.23;100.00
62634;BME280;48704;50.534;6.442;2023-05-09T05:25:57;95526.69;;;12.12;100.00
62634;BME280;48704;50.534;6.442;2023-05-09T05:28:22;95526.88;;;12.08;100.00
62634;BME280;48704;50.534;6.442;2023-05-09T05:30:47;95530.31;;;12.18;100.00
62634;BME280;48704;50.534;6.442;2023-05-09T05:33:12;95521.66;;;12.16;100.00
62634;BME280;48704;50.534;6.442;2023-05-09T05:35:38;95509.91;;;12.12;100.00
62634;BME280;48704;50.534;6.442;2023-05-09T05:38:03;95516.06;;;12.16;100.00
62634;BME280;48704;50.534;6.442;2023-05-09T05:40:28;95517.69;;;12.28;100.00
62634;BME280;48704;50.534;6.442;2023-05-09T05:42:53;95515.75;;;12.34;100.00
62634;BME280;48704;50.534;6.442;2023-05-09T05:45:19;95522.75;;;12.24;100.00
62634;BME280;48704;50.534;6.442;2023-05-09T05:47:44;95509.59;;;12.30;100.00
62634;BME280;48704;50.534;6.442;2023-05-09T05:50:09;95511.13;;;12.31;100.00
62634;BME280;48704;50.534;6.442;2023-05-09T05:52:39;95518.06;;;12.35;100.00
62634;BME280;48704;50.534;6.442;2023-05-09T05:55:06;95521.47;;;12.45;100.00
62634;BME280;48704;50.534;6.442;2023-05-09T05:57:31;95510.84;;;12.49;100.00
62634;BME280;48704;50.534;6.442;2023-05-09T05:59:58;95509.84;;;12.52;100.00
62634;BME280;48704;50.534;6.442;2023-05-09T06:02:23;95506.63;;;12.59;100.00
62634;BME280;48704;50.534;6.442;2023-05-09T06:04:49;95511.75;;;12.66;100.00
62634;BME280;48704;50.534;6.442;2023-05-09T06:07:14;95511.72;;;12.61;100.00
62634;BME280;48704;50.534;6.442;2023-05-09T06:09:40;95503.88;;;12.65;100.00
62634;BME280;48704;50.534;6.442;2023-05-09T06:12:05;95501.31;;;12.61;100.00
62634;BME280;48704;50.534;6.442;2023-05-09T06:14:31;95496.66;;;12.53;100.00
62634;BME280;48704;50.534;6.442;2023-05-09T06:16:57;95497.00;;;12.66;100.00
62634;BME280;48704;50.534;6.442;2023-05-09T06:19:22;95499.31;;;12.67;100.00
62634;BME280;48704;50.534;6.442;2023-05-09T06:21:47;95499.28;;;12.62;100.00
62634;BME280;48704;50.534;6.442;2023-05-09T06:24:13;95489.66;;;12.68;100.00
62634;BME280;48704;50.534;6.442;2023-05-09T06:26:38;95483.97;;;12.83;100.00
62634;BME280;48704;50.534;6.442;2023-05-09T06:29:03;95487.81;;;12.86;100.00
62634;BME280;48704;50.534;6.442;2023-05-09T06:31:30;95482.75;;;12.90;100.00
62634;BME280;48704;50.534;6.442;2023-05-09T06:33:55;95478.03;;;13.07;100.00
62634;BME280;48704;50.534;6.442;2023-05-09T06:36:21;95479.50;;;13.28;100.00
62634;BME280;48704;50.534;6.442;2023-05-09T06:38:46;95481.09;;;13.41;100.00
62634;BME280;48704;50.534;6.442;2023-05-09T06:41:11;95469.53;;;13.59;100.00
62634;BME280;48704;50.534;6.442;2023-05-09T06:43:37;95464.22;;;13.66;100.00
62634;BME280;48704;50.534;6.442;2023-05-09T06:46:02;95462.66;;;13.60;100.00
62634;BME280;48704;50.534;6.442;2023-05-09T06:48:27;95465.97;;;13.64;100.00
62634;BME280;48704;50.534;6.442;2023-05-09T06:50:53;95469.81;;;13.66;100.00
62634;BME280;48704;50.534;6.442;2023-05-09T06:53:18;95462.16;;;13.61;100.00
62634;BME280;48704;50.534;6.442;2023-05-09T06:55:43;95452.66;;;13.48;100.00
62634;BME280;48704;50.534;6.442;2023-05-09T06:58:09;95456.66;;;13.35;100.00
62634;BME280;48704;50.534;6.442;2023-05-09T07:00:35;95455.94;;;13.46;100.00
62634;BME280;48704;50.534;6.442;2023-05-09T07:03:00;95448.50;;;13.32;100.00
62634;BME280;48704;50.534;6.442;2023-05-09T07:05:25;95454.72;;;13.53;100.00
62634;BME280;48704;50.534;6.442;2023-05-09T07:07:51;95455.06;;;13.66;100.00
62634;BME280;48704;50.534;6.442;2023-05-09T07:10:19;95455.34;;;13.79;100.00
62634;BME280;48704;50.534;6.442;2023-05-09T07:12:44;95450.19;;;13.61;100.00
62634;BME280;48704;50.534;6.442;2023-05-09T07:15:09;95451.25;;;13.69;100.00
62634;BME280;48704;50.534;6.442;2023-05-09T07:17:35;95450.00;;;13.81;100.00
62634;BME280;48704;50.534;6.442;2023-05-09T07:20:00;95446.19;;;13.73;100.00
62634;BME280;48704;50.534;6.442;2023-05-09T07:22:27;95445.59;;;13.58;100.00
62634;BME280;48704;50.534;6.442;2023-05-09T07:24:53;95442.22;;;13.48;100.00
62634;BME280;48704;50.534;6.442;2023-05-09T07:27:18;95443.47;;;13.95;100.00
62634;BME280;48704;50.534;6.442;2023-05-09T07:29:43;95447.84;;;14.08;100.00
62634;BME280;48704;50.534;6.442;2023-05-09T07:32:08;95437.13;;;14.12;100.00
62634;BME280;48704;50.534;6.442;2023-05-09T07:34:34;95436.44;;;14.33;100.00
62634;BME280;48704;50.534;6.442;2023-05-09T07:36:59;95430.38;;;14.57;100.00
62634;BME280;48704;50.534;6.442;2023-05-09T07:39:25;95428.84;;;14.95;100.00
62634;BME280;48704;50.534;6.442;2023-05-09T07:41:50;95416.63;;;14.87;100.00
62634;BME280;48704;50.534;6.442;2023-05-09T07:44:15;95417.38;;;15.10;100.00
62634;BME280;48704;50.534;6.442;2023-05-09T07:46:40;95417.38;;;14.99;100.00
62634;BME280;48704;50.534;6.442;2023-05-09T07:49:07;95412.53;;;15.22;100.00
62634;BME280;48704;50.534;6.442;2023-05-09T07:51:32;95406.63;;;15.25;100.00
62634;BME280;48704;50.534;6.442;2023-05-09T07:53:57;95409.19;;;15.23;100.00
62634;BME280;48704;50.534;6.442;2023-05-09T07:56:23;95403.09;;;15.08;100.00
62634;BME280;48704;50.534;6.442;2023-05-09T07:58:48;95406.41;;;15.07;100.00
62634;BME280;48704;50.534;6.442;2023-05-09T08:01:14;95399.66;;;15.60;100.00
62634;BME280;48704;50.534;6.442;2023-05-09T08:03:39;95390.19;;;15.74;100.00
62634;BME280;48704;50.534;6.442;2023-05-09T08:06:04;95379.38;;;15.89;100.00
62634;BME280;48704;50.534;6.442;2023-05-09T08:08:30;95384.06;;;15.70;100.00
62634;BME280;48704;50.534;6.442;2023-05-09T08:10:55;95377.88;;;15.88;100.00
62634;BME280;48704;50.534;6.442;2023-05-09T08:13:21;95367.66;;;15.85;100.00
62634;BME280;48704;50.534;6.442;2023-05-09T08:15:47;95381.56;;;15.50;100.00
62634;BME280;48704;50.534;6.442;2023-05-09T08:18:12;95379.56;;;15.22;100.00
62634;BME280;48704;50.534;6.442;2023-05-09T08:20:37;95375.03;;;15.19;100.00
62634;BME280;48704;50.534;6.442;2023-05-09T08:23:03;95364.78;;;15.27;100.00
62634;BME280;48704;50.534;6.442;2023-05-09T08:25:28;95365.03;;;15.29;100.00
62634;BME280;48704;50.534;6.442;2023-05-09T08:27:53;95362.03;;;15.11;100.00
62634;BME280;48704;50.534;6.442;2023-05-09T08:30:19;95355.78;;;15.51;100.00
62634;BME280;48704;50.534;6.442;2023-05-09T08:32:44;95358.88;;;15.42;100.00
62634;BME280;48704;50.534;6.442;2023-05-09T08:35:09;95347.56;;;15.64;100.00
62634;BME280;48704;50.534;6.442;2023-05-09T08:37:35;95351.22;;;15.31;100.00
62634;BME280;48704;50.534;6.442;2023-05-09T08:40:02;95348.00;;;14.94;100.00
62634;BME280;48704;50.534;6.442;2023-05-09T08:42:29;95334.03;;;15.63;100.00
62634;BME280;48704;50.534;6.442;2023-05-09T08:44:56;95339.13;;;15.70;100.00
62634;BME280;48704;50.534;6.442;2023-05-09T08:47:21;95338.53;;;15.88;100.00
62634;BME280;48704;50.534;6.442;2023-05-09T08:49:47;95336.91;;;15.98;100.00
62634;BME280;48704;50.534;6.442;2023-05-09T08:52:14;95322.34;;;16.00;100.00
62634;BME280;48704;50.534;6.442;2023-05-09T08:54:39;95325.69;;;15.98;100.00
62634;BME280;48704;50.534;6.442;2023-05-09T08:57:05;95331.84;;;15.28;100.00
62634;BME280;48704;50.534;6.442;2023-05-09T08:59:30;95334.06;;;15.52;100.00
62634;BME280;48704;50.534;6.442;2023-05-09T09:01:59;95321.09;;;15.43;100.00
62634;BME280;48704;50.534;6.442;2023-05-09T09:04:24;95316.97;;;15.50;100.00
62634;BME280;48704;50.534;6.442;2023-05-09T09:06:50;95322.38;;;15.42;100.00
62634;BME280;48704;50.534;6.442;2023-05-09T09:09:18;95321.34;;;15.39;100.00
62634;BME280;48704;50.534;6.442;2023-05-09T09:11:44;95315.69;;;15.51;100.00
62634;BME280;48704;50.534;6.442;2023-05-09T09:14:12;95319.66;;;15.14;100.00
62634;BME280;48704;50.534;6.442;2023-05-09T09:16:40;95316.34;;;15.10;100.00
62634;BME280;48704;50.534;6.442;2023-05-09T09:19:12;95311.91;;;15.37;100.00
62634;BME280;48704;50.534;6.442;2023-05-09T09:21:40;95311.63;;;15.57;100.00
62634;BME280;48704;50.534;6.442;2023-05-09T09:24:08;95302.28;;;15.85;100.00
62634;BME280;48704;50.534;6.442;2023-05-09T09:26:45;95308.72;;;15.74;100.00
62634;BME280;48704;50.534;6.442;2023-05-09T09:29:11;95306.66;;;16.16;100.00
62634;BME280;48704;50.534;6.442;2023-05-09T09:31:37;95301.47;;;16.31;100.00
62634;BME280;48704;50.534;6.442;2023-05-09T09:34:02;95305.31;;;16.28;100.00
62634;BME280;48704;50.534;6.442;2023-05-09T09:36:29;95305.03;;;16.61;100.00
62634;BME280;48704;50.534;6.442;2023-05-09T09:39:00;95295.72;;;16.42;100.00
62634;BME280;48704;50.534;6.442;2023-05-09T09:41:36;95306.13;;;16.83;100.00
62634;BME280;48704;50.534;6.442;2023-05-09T09:44:21;95294.31;;;16.90;100.00
62634;BME280;48704;50.534;6.442;2023-05-09T09:46:51;95289.06;;;16.75;100.00
62634;BME280;48704;50.534;6.442;2023-05-09T09:49:22;95284.97;;;16.76;100.00
62634;BME280;48704;50.534;6.442;2023-05-09T09:51:57;95289.84;;;16.40;100.00
62634;BME280;48704;50.534;6.442;2023-05-09T09:54:25;95283.19;;;16.43;100.00
62634;BME280;48704;50.534;6.442;2023-05-09T09:56:51;95285.88;;;16.30;100.00
62634;BME280;48704;50.534;6.442;2023-05-09T09:59:23;95286.00;;;16.43;100.00
62634;BME280;48704;50.534;6.442;2023-05-09T10:02:04;95280.78;;;16.28;100.00
62634;BME280;48704;50.534;6.442;2023-05-09T10:04:36;95279.19;;;15.97;100.00
62634;BME280;48704;50.534;6.442;2023-05-09T10:07:03;95275.03;;;16.10;100.00
62634;BME280;48704;50.534;6.442;2023-05-09T10:09:31;95274.06;;;16.01;100.00
62634;BME280;48704;50.534;6.442;2023-05-09T10:12:01;95271.34;;;15.90;100.00
62634;BME280;48704;50.534;6.442;2023-05-09T10:14:26;95263.22;;;15.81;100.00
62634;BME280;48704;50.534;6.442;2023-05-09T10:16:56;95260.56;;;15.59;100.00
62634;BME280;48704;50.534;6.442;2023-05-09T10:19:22;95259.03;;;15.58;100.00
62634;BME280;48704;50.534;6.442;2023-05-09T10:21:54;95273.06;;;15.58;100.00
62634;BME280;48704;50.534;6.442;2023-05-09T10:24:33;95255.28;;;15.85;100.00
62634;BME280;48704;50.534;6.442;2023-05-09T10:27:04;95253.69;;;15.95;100.00
62634;BME280;48704;50.534;6.442;2023-05-09T10:29:37;95245.78;;;16.24;100.00
62634;BME280;48704;50.534;6.442;2023-05-09T10:35:07;95234.97;;;16.88;100.00
62634;BME280;48704;50.534;6.442;2023-05-09T10:37:35;95227.41;;;17.01;100.00
62634;BME280;48704;50.534;6.442;2023-05-09T10:40:02;95225.84;;;17.25;100.00
62634;BME280;48704;50.534;6.442;2023-05-09T10:42:29;95232.28;;;17.20;100.00
62634;BME280;48704;50.534;6.442;2023-05-09T10:44:55;95217.69;;;17.59;100.00
62634;BME280;48704;50.534;6.442;2023-05-09T10:47:24;95221.94;;;18.03;100.00
62634;BME280;48704;50.534;6.442;2023-05-09T10:49:51;95225.41;;;17.77;100.00
62634;BME280;48704;50.534;6.442;2023-05-09T10:52:17;95223.66;;;17.74;100.00
62634;BME280;48704;50.534;6.442;2023-05-09T10:54:43;95219.66;;;18.01;100.00
62634;BME280;48704;50.534;6.442;2023-05-09T10:57:08;95216.25;;;17.90;100.00
62634;BME280;48704;50.534;6.442;2023-05-09T10:59:39;95215.44;;;17.76;100.00
62634;BME280;48704;50.534;6.442;2023-05-09T11:02:11;95202.34;;;17.79;100.00
62634;BME280;48704;50.534;6.442;2023-05-09T11:04:38;95192.84;;;17.95;100.00
62634;BME280;48704;50.534;6.442;2023-05-09T11:07:21;95193.66;;;17.77;100.00
62634;BME280;48704;50.534;6.442;2023-05-09T11:10:29;95184.34;;;17.63;100.00
62634;BME280;48704;50.534;6.442;2023-05-09T11:12:53;95181.84;;;17.03;100.00
62634;BME280;48704;50.534;6.442;2023-05-09T11:15:18;95185.84;;;16.89;100.00
62634;BME280;48704;50.534;6.442;2023-05-09T11:17:44;95185.38;;;16.85;100.00
62634;BME280;48704;50.534;6.442;2023-05-09T11:20:09;95173.53;;;16.92;100.00
62634;BME280;48704;50.534;6.442;2023-05-09T11:22:38;95174.47;;;17.19;100.00
62634;BME280;48704;50.534;6.442;2023-05-09T11:25:09;95158.88;;;17.36;100.00
62634;BME280;48704;50.534;6.442;2023-05-09T11:27:41;95164.03;;;17.70;100.00
62634;BME280;48704;50.534;6.442;2023-05-09T11:30:08;95155.63;;;18.15;100.00
62634;BME280;48704;50.534;6.442;2023-05-09T11:32:45;95150.53;;;18.27;100.00
62634;BME280;48704;50.534;6.442;2023-05-09T11:35:13;95151.88;;;17.43;100.00
62634;BME280;48704;50.534;6.442;2023-05-09T11:37:45;95152.53;;;17.68;100.00
62634;BME280;48704;50.534;6.442;2023-05-09T11:40:12;95133.94;;;17.78;100.00
62634;BME280;48704;50.534;6.442;2023-05-09T11:42:41;95131.34;;;17.80;100.00
62634;BME280;48704;50.534;6.442;2023-05-09T11:45:08;95131.78;;;17.84;100.00
62634;BME280;48704;50.534;6.442;2023-05-09T11:47:35;95128.69;;;17.69;100.00
62634;BME280;48704;50.534;6.442;2023-05-09T11:50:01;95124.81;;;17.72;100.00
62634;BME280;48704;50.534;6.442;2023-05-09T11:52:30;95127.53;;;17.59;100.00
62634;BME280;48704;50.534;6.442;2023-05-09T11:54:57;95122.19;;;17.23;100.00
62634;BME280;48704;50.534;6.442;2023-05-09T11:57:23;95117.84;;;17.22;100.00
62634;BME280;48704;50.534;6.442;2023-05-09T11:59:48;95118.44;;;17.34;100.00
62634;BME280;48704;50.534;6.442;2023-05-09T12:02:13;95116.59;;;17.74;100.00
62634;BME280;48704;50.534;6.442;2023-05-09T12:04:39;95108.59;;;17.78;100.00
62634;BME280;48704;50.534;6.442;2023-05-09T12:07:04;95104.41;;;17.47;100.00
62634;BME280;48704;50.534;6.442;2023-05-09T12:09:31;95095.72;;;17.64;100.00
62634;BME280;48704;50.534;6.442;2023-05-09T12:11:57;95104.78;;;17.06;100.00
62634;BME280;48704;50.534;6.442;2023-05-09T12:14:33;95100.81;;;16.96;100.00
62634;BME280;48704;50.534;6.442;2023-05-09T12:16:58;95089.03;;;16.54;100.00
62634;BME280;48704;50.534;6.442;2023-05-09T12:19:25;95091.03;;;16.59;100.00
62634;BME280;48704;50.534;6.442;2023-05-09T12:22:01;95079.03;;;16.78;100.00
62634;BME280;48704;50.534;6.442;2023-05-09T12:24:27;95084.81;;;16.85;100.00
62634;BME280;48704;50.534;6.442;2023-05-09T12:26:57;95083.41;;;16.54;100.00
62634;BME280;48704;50.534;6.442;2023-05-09T12:29:24;95089.22;;;16.13;100.00
62634;BME280;48704;50.534;6.442;2023-05-09T12:31:51;95090.22;;;15.61;100.00
62634;BME280;48704;50.534;6.442;2023-05-09T12:34:17;95100.00;;;14.67;100.00
62634;BME280;48704;50.534;6.442;2023-05-09T12:36:43;95118.31;;;13.49;100.00
62634;BME280;48704;50.534;6.442;2023-05-09T12:39:18;95095.16;;;13.48;100.00
62634;BME280;48704;50.534;6.442;2023-05-09T12:41:49;95094.16;;;13.34;100.00
62634;BME280;48704;50.534;6.442;2023-05-09T12:44:23;95097.94;;;13.43;100.00
62634;BME280;48704;50.534;6.442;2023-05-09T12:46:57;95086.75;;;13.48;100.00
62634;BME280;48704;50.534;6.442;2023-05-09T12:49:22;95084.22;;;13.56;100.00
62634;BME280;48704;50.534;6.442;2023-05-09T12:51:48;95078.34;;;13.59;100.00
62634;BME280;48704;50.534;6.442;2023-05-09T12:54:19;95084.47;;;13.41;100.00
62634;BME280;48704;50.534;6.442;2023-05-09T12:56:45;95080.66;;;13.61;100.00